sensor_id;sensor_type;location;lat;lon;timestamp;pressure;altitude;pressure_sealevel;temperature;humidity
50087;BME280;35967;50.718;7.050;2023-03-16T00:09:00;101162.19;;;3.89;68.61
50087;BME280;35967;50.718;7.050;2023-03-16T00:19:44;101159.63;;;3.88;68.79
50087;BME280;35967;50.718;7.050;2023-03-16T00:30:07;101158.53;;;3.72;69.75
50087;BME280;35967;50.718;7.050;2023-03-16T00:40:49;101148.50;;;3.83;69.05
50087;BME280;35967;50.718;7.050;2023-03-16T00:51:14;101144.22;;;3.82;68.98
50087;BME280;35967;50.718;7.050;2023-03-16T01:01:43;101135.25;;;3.45;70.52
50087;BME280;35967;50.718;7.050;2023-03-16T01:12:02;101128.81;;;3.69;71.00
50087;BME280;35967;50.718;7.050;2023-03-16T01:22:23;101135.69;;;3.75;70.79
50087;BME280;35967;50.718;7.050;2023-03-16T01:32:50;101114.31;;;3.65;71.12
50087;BME280;35967;50.718;7.050;2023-03-16T01:43:10;101100.84;;;3.72;71.15
50087;BME280;35967;50.718;7.050;2023-03-16T01:53:28;101088.00;;;3.65;70.65
50087;BME280;35967;50.718;7.050;2023-03-16T02:03:41;101070.16;;;3.63;70.96
50087;BME280;35967;50.718;7.050;2023-03-16T02:13:59;101053.09;;;3.56;71.44
50087;BME280;35967;50.718;7.050;2023-03-16T02:24:37;101036.94;;;3.54;71.68
50087;BME280;35967;50.718;7.050;2023-03-16T02:35:11;101036.69;;;3.35;72.59
50087;BME280;35967;50.718;7.050;2023-03-16T02:45:44;101021.50;;;3.41;73.14
50087;BME280;35967;50.718;7.050;2023-03-16T02:56:16;101007.88;;;3.35;73.66
50087;BME280;35967;50.718;7.050;2023-03-16T03:06:33;101006.28;;;3.44;73.96
50087;BME280;35967;50.718;7.050;2023-03-16T03:16:56;100990.31;;;3.56;73.78
50087;BME280;35967;50.718;7.050;2023-03-16T03:27:26;100978.38;;;3.51;74.35
50087;BME280;35967;50.718;7.050;2023-03-16T03:37:55;100979.28;;;3.56;74.25
50087;BME280;35967;50.718;7.050;2023-03-16T03:48:15;100980.91;;;3.51;74.39
50087;BME280;35967;50.718;7.050;2023-03-16T03:58:30;100970.53;;;3.35;75.15
50087;BME280;35967;50.718;7.050;2023-03-16T04:08:38;100966.38;;;3.40;74.77
50087;BME280;35967;50.718;7.050;2023-03-16T04:18:59;100967.91;;;3.27;75.31
50087;BME280;35967;50.718;7.050;2023-03-16T04:29:10;100966.47;;;3.48;75.14
50087;BME280;35967;50.718;7.050;2023-03-16T04:39:30;100956.34;;;3.54;75.21
50087;BME280;35967;50.718;7.050;2023-03-16T04:49:53;100951.00;;;3.33;75.78
50087;BME280;35967;50.718;7.050;2023-03-16T05:00:26;100929.91;;;3.41;75.96
50087;BME280;35967;50.718;7.050;2023-03-16T05:10:55;100926.28;;;3.21;77.11
50087;BME280;35967;50.718;7.050;2023-03-16T05:21:22;100935.69;;;3.26;76.51
50087;BME280;35967;50.718;7.050;2023-03-16T05:31:37;100920.59;;;3.40;75.60
50087;BME280;35967;50.718;7.050;2023-03-16T05:41:59;100919.88;;;3.57;74.75
50087;BME280;35967;50.718;7.050;2023-03-16T05:52:17;100925.78;;;3.51;75.21
50087;BME280;35967;50.718;7.050;2023-03-16T06:02:47;100925.97;;;3.67;74.75
50087;BME280;35967;50.718;7.050;2023-03-16T06:13:03;100935.03;;;3.44;75.27
50087;BME280;35967;50.718;7.050;2023-03-16T06:23:13;100935.91;;;3.48;75.07
50087;BME280;35967;50.718;7.050;2023-03-16T06:33:42;100951.19;;;3.50;75.34
50087;BME280;35967;50.718;7.050;2023-03-16T06:44:01;100948.16;;;3.78;74.51
50087;BME280;35967;50.718;7.050;2023-03-16T06:54:21;100947.31;;;3.79;74.77
50087;BME280;35967;50.718;7.050;2023-03-16T07:04:29;100963.53;;;3.89;74.85
50087;BME280;35967;50.718;7.050;2023-03-16T07:14:33;100960.25;;;4.03;74.09
50087;BME280;35967;50.718;7.050;2023-03-16T07:24:38;100955.38;;;4.28;74.10
50087;BME280;35967;50.718;7.050;2023-03-16T07:34:43;100963.25;;;4.54;73.50
50087;BME280;35967;50.718;7.050;2023-03-16T07:44:48;100969.28;;;4.64;72.97
50087;BME280;35967;50.718;7.050;2023-03-16T07:54:53;100971.09;;;4.80;71.51
50087;BME280;35967;50.718;7.050;2023-03-16T08:04:58;100960.09;;;4.90;71.49
50087;BME280;35967;50.718;7.050;2023-03-16T08:15:01;100948.25;;;4.97;71.96
50087;BME280;35967;50.718;7.050;2023-03-16T08:25:09;100950.03;;;5.12;71.05
50087;BME280;35967;50.718;7.050;2023-03-16T08:35:18;100952.63;;;5.23;71.65
50087;BME280;35967;50.718;7.050;2023-03-16T08:45:23;100945.91;;;5.47;70.02
50087;BME280;35967;50.718;7.050;2023-03-16T08:55:27;100934.00;;;5.52;69.32
50087;BME280;35967;50.718;7.050;2023-03-16T09:05:32;100923.00;;;5.67;70.20
50087;BME280;35967;50.718;7.050;2023-03-16T09:15:36;100940.03;;;5.76;68.40
50087;BME280;35967;50.718;7.050;2023-03-16T09:25:41;100911.16;;;6.08;67.44
50087;BME280;35967;50.718;7.050;2023-03-16T09:35:44;100913.72;;;6.34;66.06
50087;BME280;35967;50.718;7.050;2023-03-16T09:45:55;100927.31;;;6.53;65.95
50087;BME280;35967;50.718;7.050;2023-03-16T09:56:03;100911.16;;;6.56;66.48
50087;BME280;35967;50.718;7.050;2023-03-16T10:06:10;100899.16;;;6.72;66.17
50087;BME280;35967;50.718;7.050;2023-03-16T10:16:18;100898.28;;;6.91;67.55
50087;BME280;35967;50.718;7.050;2023-03-16T10:26:32;100889.72;;;6.95;65.56
50087;BME280;35967;50.718;7.050;2023-03-16T10:36:38;100877.72;;;7.08;65.20
50087;BME280;35967;50.718;7.050;2023-03-16T10:46:46;100868.09;;;7.55;64.50
50087;BME280;35967;50.718;7.050;2023-03-16T10:56:50;100871.44;;;7.68;63.48
50087;BME280;35967;50.718;7.050;2023-03-16T11:06:56;100837.56;;;8.33;62.04
50087;BME280;35967;50.718;7.050;2023-03-16T11:17:01;100828.63;;;8.73;60.58
50087;BME280;35967;50.718;7.050;2023-03-16T11:27:12;100808.50;;;9.69;57.98
50087;BME280;35967;50.718;7.050;2023-03-16T11:37:24;100786.94;;;9.76;55.88
50087;BME280;35967;50.718;7.050;2023-03-16T11:48:03;100774.09;;;9.76;56.26
50087;BME280;35967;50.718;7.050;2023-03-16T11:58:22;100769.19;;;10.57;54.81
50087;BME280;35967;50.718;7.050;2023-03-16T12:08:47;100759.03;;;10.92;54.33
50087;BME280;35967;50.718;7.050;2023-03-16T12:18:58;100754.16;;;10.78;54.17
50087;BME280;35967;50.718;7.050;2023-03-16T12:29:11;100728.53;;;10.73;53.40
50087;BME280;35967;50.718;7.050;2023-03-16T12:39:27;100712.00;;;11.20;52.16
50087;BME280;35967;50.718;7.050;2023-03-16T12:49:35;100690.25;;;11.32;51.85
50087;BME280;35967;50.718;7.050;2023-03-16T12:59:41;100657.56;;;10.98;53.06
50087;BME280;35967;50.718;7.050;2023-03-16T13:09:52;100649.69;;;11.05;51.06
50087;BME280;35967;50.718;7.050;2023-03-16T13:20:04;100618.75;;;11.05;49.39
50087;BME280;35967;50.718;7.050;2023-03-16T13:30:20;100616.06;;;11.10;49.54
50087;BME280;35967;50.718;7.050;2023-03-16T13:40:25;100599.00;;;11.41;48.54
50087;BME280;35967;50.718;7.050;2023-03-16T13:50:32;100595.06;;;11.59;47.01
50087;BME280;35967;50.718;7.050;2023-03-16T14:00:35;100563.63;;;12.07;45.37
50087;BME280;35967;50.718;7.050;2023-03-16T14:10:41;100547.72;;;12.50;45.02
50087;BME280;35967;50.718;7.050;2023-03-16T14:20:45;100538.03;;;11.70;48.17
50087;BME280;35967;50.718;7.050;2023-03-16T14:30:51;100530.03;;;11.49;50.07
50087;BME280;35967;50.718;7.050;2023-03-16T14:40:57;100523.06;;;11.52;48.72
50087;BME280;35967;50.718;7.050;2023-03-16T14:51:02;100497.72;;;11.37;50.21
50087;BME280;35967;50.718;7.050;2023-03-16T15:01:08;100495.75;;;11.45;50.62
50087;BME280;35967;50.718;7.050;2023-03-16T15:11:35;100482.50;;;11.58;51.01
50087;BME280;35967;50.718;7.050;2023-03-16T15:21:39;100483.22;;;11.63;49.28
50087;BME280;35967;50.718;7.050;2023-03-16T15:31:44;100482.59;;;11.55;50.58
50087;BME280;35967;50.718;7.050;2023-03-16T15:41:48;100477.56;;;11.50;52.55
50087;BME280;35967;50.718;7.050;2023-03-16T15:51:52;100462.28;;;11.44;53.46
50087;BME280;35967;50.718;7.050;2023-03-16T16:01:55;100463.41;;;11.35;54.18
50087;BME280;35967;50.718;7.050;2023-03-16T16:12:00;100441.97;;;11.33;54.30
50087;BME280;35967;50.718;7.050;2023-03-16T16:22:03;100449.13;;;11.23;55.53
50087;BME280;35967;50.718;7.050;2023-03-16T16:32:20;100437.34;;;11.14;56.06
50087;BME280;35967;50.718;7.050;2023-03-16T16:42:24;100434.19;;;11.04;56.44
50087;BME280;35967;50.718;7.050;2023-03-16T16:52:28;100423.19;;;10.99;56.37
50087;BME280;35967;50.718;7.050;2023-03-16T17:02:41;100419.09;;;10.91;56.29
50087;BME280;35967;50.718;7.050;2023-03-16T17:12:47;100417.81;;;10.74;56.26
50087;BME280;35967;50.718;7.050;2023-03-16T17:22:51;100424.72;;;10.73;56.53
50087;BME280;35967;50.718;7.050;2023-03-16T17:32:59;100419.03;;;10.61;56.46
50087;BME280;35967;50.718;7.050;2023-03-16T17:43:04;100410.78;;;10.48;56.40
50087;BME280;35967;50.718;7.050;2023-03-16T17:53:13;100418.72;;;10.40;57.14
50087;BME280;35967;50.718;7.050;2023-03-16T18:03:17;100430.09;;;10.30;57.26
50087;BME280;35967;50.718;7.050;2023-03-16T18:13:24;100433.81;;;10.18;57.08
50087;BME280;35967;50.718;7.050;2023-03-16T18:23:29;100437.38;;;10.12;57.16
50087;BME280;35967;50.718;7.050;2023-03-16T18:33:37;100427.19;;;10.07;57.23
50087;BME280;35967;50.718;7.050;2023-03-16T18:43:41;100439.72;;;10.21;56.72
50087;BME280;35967;50.718;7.050;2023-03-16T18:53:46;100432.47;;;10.01;57.19
50087;BME280;35967;50.718;7.050;2023-03-16T19:03:51;100430.69;;;10.05;57.08
50087;BME280;35967;50.718;7.050;2023-03-16T19:13:56;100435.94;;;10.00;57.68
50087;BME280;35967;50.718;7.050;2023-03-16T19:24:01;100423.00;;;10.03;57.23
50087;BME280;35967;50.718;7.050;2023-03-16T19:34:13;100416.44;;;9.91;57.73
50087;BME280;35967;50.718;7.050;2023-03-16T19:44:19;100419.09;;;9.87;57.91
50087;BME280;35967;50.718;7.050;2023-03-16T19:54:26;100412.31;;;9.83;57.91
50087;BME280;35967;50.718;7.050;2023-03-16T20:04:29;100394.34;;;9.83;57.80
50087;BME280;35967;50.718;7.050;2023-03-16T20:14:34;100390.38;;;9.69;58.33
50087;BME280;35967;50.718;7.050;2023-03-16T20:24:37;100369.06;;;9.64;58.36
50087;BME280;35967;50.718;7.050;2023-03-16T20:34:43;100357.78;;;9.70;58.11
50087;BME280;35967;50.718;7.050;2023-03-16T20:44:46;100347.50;;;9.70;57.93
50087;BME280;35967;50.718;7.050;2023-03-16T20:54:51;100340.06;;;9.59;58.22
50087;BME280;35967;50.718;7.050;2023-03-16T21:04:56;100314.28;;;9.62;57.99
50087;BME280;35967;50.718;7.050;2023-03-16T21:15:14;100306.63;;;9.60;57.91
50087;BME280;35967;50.718;7.050;2023-03-16T21:25:21;100292.88;;;9.61;57.95
50087;BME280;35967;50.718;7.050;2023-03-16T21:35:32;100276.56;;;9.64;58.05
50087;BME280;35967;50.718;7.050;2023-03-16T21:45:34;100276.47;;;9.67;57.35
50087;BME280;35967;50.718;7.050;2023-03-16T21:55:39;100265.50;;;9.60;57.32
50087;BME280;35967;50.718;7.050;2023-03-16T22:05:43;100255.25;;;9.60;56.74
50087;BME280;35967;50.718;7.050;2023-03-16T22:15:49;100248.66;;;9.49;56.83
50087;BME280;35967;50.718;7.050;2023-03-16T22:25:53;100253.16;;;9.40;56.85
50087;BME280;35967;50.718;7.050;2023-03-16T22:36:02;100242.88;;;9.40;56.48
50087;BME280;35967;50.718;7.050;2023-03-16T22:46:12;100222.44;;;9.34;56.65
50087;BME280;35967;50.718;7.050;2023-03-16T22:56:22;100208.66;;;9.38;56.15
50087;BME280;35967;50.718;7.050;2023-03-16T23:06:29;100211.22;;;9.38;56.00
50087;BME280;35967;50.718;7.050;2023-03-16T23:16:36;100210.41;;;9.36;56.09
50087;BME280;35967;50.718;7.050;2023-03-16T23:26:59;100203.53;;;9.38;56.22
50087;BME280;35967;50.718;7.050;2023-03-16T23:37:03;100195.81;;;9.38;56.14
50087;BME280;35967;50.718;7.050;2023-03-16T23:47:08;100199.34;;;9.34;56.03
50087;BME280;35967;50.718;7.050;2023-03-16T23:57:13;100210.41;;;9.36;55.75
